Akron, Ohio
Current Conditions -  °F | °C
As of 7:02 PM on Thursday 27 Nov 2014 (Local Time) from KAKR Reporting Station
Light Snow Light Snow  
Wind Chill: 22°   Ceiling: 1400
Heat Index: 30°   Visibility: 5mi
Dew Point: 26°   Wind: 8mph
Humidity: 85%   Direction: 250°WSW
Pressure: 30.18"   Gusts: NA
Location:  41.08°N, 81.51°W
Report Text: KAKR 280002Z AUTO 25007KT 5SM -SN BR BKN014 BKN019 OVC110 M01/M03 A3018 RMK AO2 P0000 T10111033 $
Loading
Personal Weather Stations






























Interactive Weather Map New forecast layout! Learn more

10-Day Weather Forecast

Advertisements
Track Severe Weather on mobile